sensor_id;sensor_type;location;lat;lon;timestamp;P1;durP1;ratioP1;P2;durP2;ratioP2
14040;SDS011;7095;51.388;6.196;2022-10-18T00:00:05;13.43;;;6.33;;
14040;SDS011;7095;51.388;6.196;2022-10-18T00:02:36;10.90;;;6.10;;
14040;SDS011;7095;51.388;6.196;2022-10-18T00:05:05;28.10;;;6.77;;
14040;SDS011;7095;51.388;6.196;2022-10-18T00:07:35;13.90;;;6.63;;
14040;SDS011;7095;51.388;6.196;2022-10-18T00:10:06;18.13;;;6.57;;
14040;SDS011;7095;51.388;6.196;2022-10-18T00:12:36;14.40;;;7.27;;
14040;SDS011;7095;51.388;6.196;2022-10-18T00:15:05;30.23;;;7.13;;
14040;SDS011;7095;51.388;6.196;2022-10-18T00:17:35;26.63;;;7.20;;
14040;SDS011;7095;51.388;6.196;2022-10-18T00:20:05;12.03;;;6.70;;
14040;SDS011;7095;51.388;6.196;2022-10-18T00:22:35;11.27;;;6.73;;
14040;SDS011;7095;51.388;6.196;2022-10-18T00:25:07;10.90;;;6.80;;
14040;SDS011;7095;51.388;6.196;2022-10-18T00:27:37;15.93;;;6.43;;
14040;SDS011;7095;51.388;6.196;2022-10-18T00:30:06;23.23;;;7.00;;
14040;SDS011;7095;51.388;6.196;2022-10-18T00:32:36;16.30;;;7.30;;
14040;SDS011;7095;51.388;6.196;2022-10-18T00:35:07;18.80;;;6.20;;
14040;SDS011;7095;51.388;6.196;2022-10-18T00:37:36;13.37;;;6.77;;
14040;SDS011;7095;51.388;6.196;2022-10-18T00:40:09;13.63;;;6.50;;
14040;SDS011;7095;51.388;6.196;2022-10-18T00:42:37;15.93;;;7.50;;
14040;SDS011;7095;51.388;6.196;2022-10-18T00:47:55;13.23;;;6.40;;
14040;SDS011;7095;51.388;6.196;2022-10-18T00:50:29;15.47;;;5.93;;
14040;SDS011;7095;51.388;6.196;2022-10-18T00:53:01;13.90;;;6.67;;
14040;SDS011;7095;51.388;6.196;2022-10-18T00:55:34;15.80;;;5.87;;
14040;SDS011;7095;51.388;6.196;2022-10-18T00:58:04;21.17;;;6.27;;
14040;SDS011;7095;51.388;6.196;2022-10-18T01:00:36;16.47;;;7.20;;
14040;SDS011;7095;51.388;6.196;2022-10-18T01:03:07;15.13;;;6.50;;
14040;SDS011;7095;51.388;6.196;2022-10-18T01:05:40;14.63;;;7.40;;
14040;SDS011;7095;51.388;6.196;2022-10-18T01:11:20;26.03;;;6.87;;
14040;SDS011;7095;51.388;6.196;2022-10-18T01:14:03;12.23;;;7.03;;
14040;SDS011;7095;51.388;6.196;2022-10-18T01:16:41;16.67;;;7.47;;
14040;SDS011;7095;51.388;6.196;2022-10-18T01:19:20;27.03;;;7.07;;
14040;SDS011;7095;51.388;6.196;2022-10-18T01:22:10;14.63;;;6.87;;
14040;SDS011;7095;51.388;6.196;2022-10-18T01:24:45;18.27;;;7.80;;
14040;SDS011;7095;51.388;6.196;2022-10-18T01:27:38;14.27;;;7.13;;
14040;SDS011;7095;51.388;6.196;2022-10-18T01:33:13;10.73;;;7.60;;
14040;SDS011;7095;51.388;6.196;2022-10-18T01:35:50;19.30;;;7.33;;
14040;SDS011;7095;51.388;6.196;2022-10-18T01:38:24;17.10;;;6.97;;
14040;SDS011;7095;51.388;6.196;2022-10-18T01:40:54;27.10;;;7.83;;
14040;SDS011;7095;51.388;6.196;2022-10-18T01:43:25;16.87;;;7.20;;
14040;SDS011;7095;51.388;6.196;2022-10-18T01:45:58;10.83;;;6.03;;
14040;SDS011;7095;51.388;6.196;2022-10-18T01:48:28;13.67;;;6.80;;
14040;SDS011;7095;51.388;6.196;2022-10-18T01:50:57;16.57;;;7.67;;
14040;SDS011;7095;51.388;6.196;2022-10-18T01:53:28;12.33;;;7.10;;
14040;SDS011;7095;51.388;6.196;2022-10-18T02:02:06;15.40;;;7.90;;
14040;SDS011;7095;51.388;6.196;2022-10-18T02:04:47;19.43;;;6.53;;
14040;SDS011;7095;51.388;6.196;2022-10-18T02:07:22;15.43;;;7.13;;
14040;SDS011;7095;51.388;6.196;2022-10-18T02:10:00;18.80;;;7.43;;
14040;SDS011;7095;51.388;6.196;2022-10-18T02:12:35;20.33;;;7.93;;
14040;SDS011;7095;51.388;6.196;2022-10-18T02:15:08;18.63;;;7.47;;
14040;SDS011;7095;51.388;6.196;2022-10-18T02:17:43;24.27;;;6.73;;
14040;SDS011;7095;51.388;6.196;2022-10-18T02:20:13;14.70;;;6.77;;
14040;SDS011;7095;51.388;6.196;2022-10-18T02:22:47;19.80;;;7.30;;
14040;SDS011;7095;51.388;6.196;2022-10-18T02:25:19;30.73;;;8.17;;
14040;SDS011;7095;51.388;6.196;2022-10-18T02:27:53;28.90;;;8.30;;
14040;SDS011;7095;51.388;6.196;2022-10-18T02:30:23;20.80;;;8.67;;
14040;SDS011;7095;51.388;6.196;2022-10-18T02:32:57;17.70;;;7.90;;
14040;SDS011;7095;51.388;6.196;2022-10-18T02:35:32;19.83;;;9.00;;
14040;SDS011;7095;51.388;6.196;2022-10-18T02:38:05;17.60;;;8.27;;
14040;SDS011;7095;51.388;6.196;2022-10-18T02:40:36;29.60;;;9.33;;
14040;SDS011;7095;51.388;6.196;2022-10-18T02:43:05;28.70;;;10.33;;
14040;SDS011;7095;51.388;6.196;2022-10-18T02:45:34;33.37;;;9.93;;
14040;SDS011;7095;51.388;6.196;2022-10-18T02:48:04;30.43;;;10.33;;
14040;SDS011;7095;51.388;6.196;2022-10-18T02:50:34;23.03;;;10.37;;
14040;SDS011;7095;51.388;6.196;2022-10-18T02:53:02;19.83;;;10.60;;
14040;SDS011;7095;51.388;6.196;2022-10-18T02:55:32;49.07;;;12.67;;
14040;SDS011;7095;51.388;6.196;2022-10-18T02:58:01;26.07;;;11.17;;
14040;SDS011;7095;51.388;6.196;2022-10-18T03:00:30;51.97;;;13.30;;
14040;SDS011;7095;51.388;6.196;2022-10-18T03:02:58;44.03;;;13.23;;
14040;SDS011;7095;51.388;6.196;2022-10-18T03:05:28;37.70;;;12.60;;
14040;SDS011;7095;51.388;6.196;2022-10-18T03:07:57;33.73;;;13.90;;
14040;SDS011;7095;51.388;6.196;2022-10-18T03:10:26;40.73;;;13.77;;
14040;SDS011;7095;51.388;6.196;2022-10-18T03:12:55;37.93;;;13.13;;
14040;SDS011;7095;51.388;6.196;2022-10-18T03:15:23;28.87;;;13.20;;
14040;SDS011;7095;51.388;6.196;2022-10-18T03:17:52;55.43;;;14.20;;
14040;SDS011;7095;51.388;6.196;2022-10-18T03:20:21;54.60;;;17.30;;
14040;SDS011;7095;51.388;6.196;2022-10-18T03:22:52;36.63;;;14.00;;
14040;SDS011;7095;51.388;6.196;2022-10-18T03:25:20;30.07;;;14.43;;
14040;SDS011;7095;51.388;6.196;2022-10-18T03:27:49;54.00;;;16.43;;
14040;SDS011;7095;51.388;6.196;2022-10-18T03:30:18;37.87;;;19.57;;
14040;SDS011;7095;51.388;6.196;2022-10-18T03:32:46;97.63;;;24.50;;
14040;SDS011;7095;51.388;6.196;2022-10-18T03:35:16;88.70;;;22.43;;
14040;SDS011;7095;51.388;6.196;2022-10-18T03:37:45;59.73;;;22.53;;
14040;SDS011;7095;51.388;6.196;2022-10-18T03:40:15;52.60;;;19.80;;
14040;SDS011;7095;51.388;6.196;2022-10-18T03:42:44;45.87;;;19.93;;
14040;SDS011;7095;51.388;6.196;2022-10-18T03:45:13;42.77;;;19.97;;
14040;SDS011;7095;51.388;6.196;2022-10-18T03:47:42;57.23;;;19.70;;
14040;SDS011;7095;51.388;6.196;2022-10-18T03:50:12;67.37;;;21.77;;
14040;SDS011;7095;51.388;6.196;2022-10-18T03:52:40;68.33;;;20.20;;
14040;SDS011;7095;51.388;6.196;2022-10-18T03:55:09;60.30;;;21.73;;
14040;SDS011;7095;51.388;6.196;2022-10-18T03:57:39;56.40;;;22.43;;
14040;SDS011;7095;51.388;6.196;2022-10-18T04:00:09;52.90;;;23.33;;
14040;SDS011;7095;51.388;6.196;2022-10-18T04:02:39;60.73;;;24.77;;
14040;SDS011;7095;51.388;6.196;2022-10-18T04:05:08;57.53;;;23.63;;
14040;SDS011;7095;51.388;6.196;2022-10-18T04:07:41;57.00;;;26.37;;
14040;SDS011;7095;51.388;6.196;2022-10-18T04:10:10;46.17;;;24.43;;
14040;SDS011;7095;51.388;6.196;2022-10-18T04:12:41;49.93;;;24.80;;
14040;SDS011;7095;51.388;6.196;2022-10-18T04:15:10;57.00;;;25.23;;
14040;SDS011;7095;51.388;6.196;2022-10-18T04:17:39;50.20;;;26.37;;
14040;SDS011;7095;51.388;6.196;2022-10-18T04:20:08;45.47;;;25.70;;
14040;SDS011;7095;51.388;6.196;2022-10-18T04:22:39;71.97;;;27.27;;
14040;SDS011;7095;51.388;6.196;2022-10-18T04:25:08;48.87;;;26.07;;
14040;SDS011;7095;51.388;6.196;2022-10-18T04:27:37;45.70;;;25.50;;
14040;SDS011;7095;51.388;6.196;2022-10-18T04:30:08;47.83;;;26.53;;
14040;SDS011;7095;51.388;6.196;2022-10-18T04:32:37;55.23;;;27.60;;
14040;SDS011;7095;51.388;6.196;2022-10-18T04:35:06;46.00;;;23.83;;
14040;SDS011;7095;51.388;6.196;2022-10-18T04:37:35;51.63;;;24.63;;
14040;SDS011;7095;51.388;6.196;2022-10-18T04:40:06;92.80;;;28.53;;
14040;SDS011;7095;51.388;6.196;2022-10-18T04:42:36;69.23;;;27.60;;
14040;SDS011;7095;51.388;6.196;2022-10-18T04:45:05;88.50;;;27.77;;
14040;SDS011;7095;51.388;6.196;2022-10-18T04:47:37;72.23;;;26.87;;
14040;SDS011;7095;51.388;6.196;2022-10-18T04:50:06;76.67;;;26.27;;
14040;SDS011;7095;51.388;6.196;2022-10-18T04:52:35;61.60;;;26.33;;
14040;SDS011;7095;51.388;6.196;2022-10-18T04:55:05;115.87;;;30.63;;
14040;SDS011;7095;51.388;6.196;2022-10-18T04:57:34;69.20;;;26.13;;
14040;SDS011;7095;51.388;6.196;2022-10-18T05:00:05;110.57;;;29.33;;
14040;SDS011;7095;51.388;6.196;2022-10-18T05:02:38;92.57;;;28.10;;
14040;SDS011;7095;51.388;6.196;2022-10-18T05:05:07;104.77;;;28.80;;
14040;SDS011;7095;51.388;6.196;2022-10-18T05:07:40;78.23;;;26.87;;
14040;SDS011;7095;51.388;6.196;2022-10-18T05:10:08;72.80;;;27.23;;
14040;SDS011;7095;51.388;6.196;2022-10-18T05:12:37;101.47;;;29.13;;
14040;SDS011;7095;51.388;6.196;2022-10-18T05:15:06;57.43;;;26.60;;
14040;SDS011;7095;51.388;6.196;2022-10-18T05:17:37;69.43;;;27.07;;
14040;SDS011;7095;51.388;6.196;2022-10-18T05:20:06;52.27;;;25.47;;
14040;SDS011;7095;51.388;6.196;2022-10-18T05:22:35;58.93;;;27.37;;
14040;SDS011;7095;51.388;6.196;2022-10-18T05:25:04;67.03;;;29.90;;
14040;SDS011;7095;51.388;6.196;2022-10-18T05:27:33;76.23;;;29.73;;
14040;SDS011;7095;51.388;6.196;2022-10-18T05:30:03;79.50;;;30.80;;
14040;SDS011;7095;51.388;6.196;2022-10-18T05:32:32;231.03;;;36.60;;
14040;SDS011;7095;51.388;6.196;2022-10-18T05:35:02;47.60;;;25.77;;
14040;SDS011;7095;51.388;6.196;2022-10-18T05:37:31;55.27;;;26.13;;
14040;SDS011;7095;51.388;6.196;2022-10-18T05:40:00;58.70;;;26.60;;
14040;SDS011;7095;51.388;6.196;2022-10-18T05:42:29;59.07;;;29.87;;
14040;SDS011;7095;51.388;6.196;2022-10-18T05:44:59;81.07;;;29.80;;
14040;SDS011;7095;51.388;6.196;2022-10-18T05:47:28;59.87;;;28.10;;
14040;SDS011;7095;51.388;6.196;2022-10-18T05:49:57;91.23;;;31.07;;
14040;SDS011;7095;51.388;6.196;2022-10-18T05:52:27;64.37;;;32.00;;
14040;SDS011;7095;51.388;6.196;2022-10-18T05:54:56;68.40;;;31.93;;
14040;SDS011;7095;51.388;6.196;2022-10-18T05:57:25;72.77;;;32.00;;
14040;SDS011;7095;51.388;6.196;2022-10-18T05:59:53;78.23;;;32.37;;
14040;SDS011;7095;51.388;6.196;2022-10-18T06:02:22;61.70;;;30.93;;
14040;SDS011;7095;51.388;6.196;2022-10-18T06:04:51;77.03;;;31.47;;
14040;SDS011;7095;51.388;6.196;2022-10-18T06:07:20;90.70;;;32.40;;
14040;SDS011;7095;51.388;6.196;2022-10-18T06:09:49;97.87;;;31.97;;
14040;SDS011;7095;51.388;6.196;2022-10-18T06:12:18;96.47;;;34.83;;
14040;SDS011;7095;51.388;6.196;2022-10-18T06:14:47;81.97;;;34.27;;
14040;SDS011;7095;51.388;6.196;2022-10-18T06:17:16;115.57;;;39.57;;
14040;SDS011;7095;51.388;6.196;2022-10-18T06:19:45;109.47;;;41.30;;
14040;SDS011;7095;51.388;6.196;2022-10-18T06:22:13;109.13;;;39.97;;
14040;SDS011;7095;51.388;6.196;2022-10-18T06:24:44;156.70;;;43.57;;
14040;SDS011;7095;51.388;6.196;2022-10-18T06:27:14;154.63;;;45.33;;
14040;SDS011;7095;51.388;6.196;2022-10-18T06:29:42;125.40;;;42.53;;
14040;SDS011;7095;51.388;6.196;2022-10-18T06:32:12;170.00;;;46.10;;
14040;SDS011;7095;51.388;6.196;2022-10-18T06:34:40;163.10;;;44.47;;
14040;SDS011;7095;51.388;6.196;2022-10-18T06:37:11;149.43;;;45.43;;
14040;SDS011;7095;51.388;6.196;2022-10-18T06:39:40;194.97;;;47.93;;
14040;SDS011;7095;51.388;6.196;2022-10-18T06:42:09;278.40;;;54.47;;
14040;SDS011;7095;51.388;6.196;2022-10-18T06:44:38;212.00;;;48.33;;
14040;SDS011;7095;51.388;6.196;2022-10-18T06:47:07;300.97;;;56.73;;
14040;SDS011;7095;51.388;6.196;2022-10-18T06:49:36;245.13;;;54.67;;
14040;SDS011;7095;51.388;6.196;2022-10-18T06:52:05;257.93;;;53.80;;
14040;SDS011;7095;51.388;6.196;2022-10-18T06:54:34;243.40;;;51.60;;
14040;SDS011;7095;51.388;6.196;2022-10-18T06:57:04;211.93;;;49.90;;
14040;SDS011;7095;51.388;6.196;2022-10-18T06:59:33;228.23;;;50.60;;
14040;SDS011;7095;51.388;6.196;2022-10-18T07:02:04;180.17;;;47.87;;
14040;SDS011;7095;51.388;6.196;2022-10-18T07:04:33;249.83;;;52.90;;
14040;SDS011;7095;51.388;6.196;2022-10-18T07:07:01;213.77;;;52.17;;
14040;SDS011;7095;51.388;6.196;2022-10-18T07:09:30;234.00;;;51.37;;
14040;SDS011;7095;51.388;6.196;2022-10-18T07:11:59;213.03;;;48.97;;
14040;SDS011;7095;51.388;6.196;2022-10-18T07:14:27;243.90;;;52.10;;
14040;SDS011;7095;51.388;6.196;2022-10-18T07:16:57;248.60;;;51.30;;
14040;SDS011;7095;51.388;6.196;2022-10-18T07:19:28;258.33;;;50.43;;
14040;SDS011;7095;51.388;6.196;2022-10-18T07:21:57;262.00;;;52.23;;
14040;SDS011;7095;51.388;6.196;2022-10-18T07:24:28;302.47;;;51.27;;
14040;SDS011;7095;51.388;6.196;2022-10-18T07:26:57;273.43;;;51.17;;
14040;SDS011;7095;51.388;6.196;2022-10-18T07:29:26;344.93;;;56.43;;
14040;SDS011;7095;51.388;6.196;2022-10-18T07:31:56;363.33;;;58.63;;
14040;SDS011;7095;51.388;6.196;2022-10-18T07:34:25;230.23;;;47.53;;
14040;SDS011;7095;51.388;6.196;2022-10-18T07:36:56;260.50;;;55.87;;
14040;SDS011;7095;51.388;6.196;2022-10-18T07:39:25;235.63;;;52.60;;
14040;SDS011;7095;51.388;6.196;2022-10-18T07:41:53;265.70;;;53.57;;
14040;SDS011;7095;51.388;6.196;2022-10-18T07:44:22;319.33;;;56.43;;
14040;SDS011;7095;51.388;6.196;2022-10-18T07:46:52;311.30;;;54.33;;
14040;SDS011;7095;51.388;6.196;2022-10-18T07:49:22;361.57;;;54.77;;
14040;SDS011;7095;51.388;6.196;2022-10-18T07:51:51;284.60;;;54.40;;
14040;SDS011;7095;51.388;6.196;2022-10-18T07:54:21;455.90;;;62.40;;
14040;SDS011;7095;51.388;6.196;2022-10-18T07:56:50;362.70;;;58.97;;
14040;SDS011;7095;51.388;6.196;2022-10-18T07:59:19;340.90;;;56.33;;
14040;SDS011;7095;51.388;6.196;2022-10-18T08:01:50;306.53;;;54.43;;
14040;SDS011;7095;51.388;6.196;2022-10-18T08:04:19;331.47;;;56.40;;
14040;SDS011;7095;51.388;6.196;2022-10-18T08:06:48;374.87;;;59.00;;
14040;SDS011;7095;51.388;6.196;2022-10-18T08:09:16;316.63;;;56.70;;
14040;SDS011;7095;51.388;6.196;2022-10-18T08:11:47;275.63;;;54.17;;
14040;SDS011;7095;51.388;6.196;2022-10-18T08:14:15;320.43;;;56.63;;
14040;SDS011;7095;51.388;6.196;2022-10-18T08:16:44;341.07;;;57.33;;
14040;SDS011;7095;51.388;6.196;2022-10-18T08:19:15;304.27;;;57.50;;
14040;SDS011;7095;51.388;6.196;2022-10-18T08:21:44;370.90;;;58.67;;
14040;SDS011;7095;51.388;6.196;2022-10-18T08:24:13;231.53;;;51.63;;
14040;SDS011;7095;51.388;6.196;2022-10-18T08:26:42;280.40;;;54.43;;
14040;SDS011;7095;51.388;6.196;2022-10-18T08:29:13;238.17;;;54.27;;
14040;SDS011;7095;51.388;6.196;2022-10-18T08:31:55;237.10;;;54.37;;
14040;SDS011;7095;51.388;6.196;2022-10-18T08:34:23;250.77;;;55.87;;
14040;SDS011;7095;51.388;6.196;2022-10-18T08:36:52;256.13;;;53.00;;
14040;SDS011;7095;51.388;6.196;2022-10-18T08:39:22;264.57;;;56.67;;
14040;SDS011;7095;51.388;6.196;2022-10-18T08:42:00;198.70;;;49.13;;
14040;SDS011;7095;51.388;6.196;2022-10-18T08:44:48;126.27;;;44.37;;
14040;SDS011;7095;51.388;6.196;2022-10-18T08:47:19;180.73;;;47.90;;
14040;SDS011;7095;51.388;6.196;2022-10-18T08:49:53;207.77;;;49.20;;
14040;SDS011;7095;51.388;6.196;2022-10-18T08:52:27;218.90;;;47.73;;
14040;SDS011;7095;51.388;6.196;2022-10-18T08:55:01;200.83;;;49.57;;
14040;SDS011;7095;51.388;6.196;2022-10-18T08:57:37;203.17;;;48.63;;
14040;SDS011;7095;51.388;6.196;2022-10-18T09:00:09;215.87;;;50.33;;
14040;SDS011;7095;51.388;6.196;2022-10-18T09:02:48;192.97;;;50.47;;
14040;SDS011;7095;51.388;6.196;2022-10-18T09:05:30;210.00;;;51.70;;
14040;SDS011;7095;51.388;6.196;2022-10-18T09:08:17;212.87;;;51.90;;
14040;SDS011;7095;51.388;6.196;2022-10-18T09:11:03;199.80;;;52.97;;
14040;SDS011;7095;51.388;6.196;2022-10-18T09:13:49;224.40;;;57.50;;
14040;SDS011;7095;51.388;6.196;2022-10-18T09:16:37;208.90;;;54.40;;
14040;SDS011;7095;51.388;6.196;2022-10-18T09:19:14;183.93;;;51.57;;
14040;SDS011;7095;51.388;6.196;2022-10-18T09:21:51;176.57;;;51.47;;
14040;SDS011;7095;51.388;6.196;2022-10-18T09:24:24;135.47;;;48.77;;
14040;SDS011;7095;51.388;6.196;2022-10-18T09:26:56;149.77;;;49.03;;
14040;SDS011;7095;51.388;6.196;2022-10-18T09:29:31;145.30;;;49.87;;
14040;SDS011;7095;51.388;6.196;2022-10-18T09:32:13;150.23;;;50.23;;
14040;SDS011;7095;51.388;6.196;2022-10-18T09:34:52;161.43;;;50.67;;
14040;SDS011;7095;51.388;6.196;2022-10-18T09:37:24;162.77;;;51.67;;
14040;SDS011;7095;51.388;6.196;2022-10-18T09:39:59;162.10;;;50.67;;
14040;SDS011;7095;51.388;6.196;2022-10-18T09:42:35;169.60;;;52.97;;
14040;SDS011;7095;51.388;6.196;2022-10-18T09:45:13;184.67;;;51.07;;
14040;SDS011;7095;51.388;6.196;2022-10-18T09:47:54;174.83;;;52.33;;
14040;SDS011;7095;51.388;6.196;2022-10-18T09:50:31;180.43;;;52.23;;
14040;SDS011;7095;51.388;6.196;2022-10-18T09:53:07;157.90;;;53.03;;
14040;SDS011;7095;51.388;6.196;2022-10-18T09:55:48;205.60;;;54.07;;
14040;SDS011;7095;51.388;6.196;2022-10-18T09:58:24;192.23;;;53.63;;
14040;SDS011;7095;51.388;6.196;2022-10-18T10:00:55;185.53;;;55.53;;
14040;SDS011;7095;51.388;6.196;2022-10-18T10:03:26;183.10;;;51.33;;
14040;SDS011;7095;51.388;6.196;2022-10-18T10:06:02;153.37;;;50.80;;
14040;SDS011;7095;51.388;6.196;2022-10-18T10:08:46;174.60;;;53.17;;
14040;SDS011;7095;51.388;6.196;2022-10-18T10:11:33;199.17;;;53.30;;
14040;SDS011;7095;51.388;6.196;2022-10-18T10:14:08;186.87;;;52.63;;
14040;SDS011;7095;51.388;6.196;2022-10-18T10:16:52;136.30;;;45.17;;
14040;SDS011;7095;51.388;6.196;2022-10-18T10:19:25;142.83;;;44.60;;
14040;SDS011;7095;51.388;6.196;2022-10-18T10:21:59;122.87;;;44.80;;
14040;SDS011;7095;51.388;6.196;2022-10-18T10:24:34;134.07;;;45.97;;
14040;SDS011;7095;51.388;6.196;2022-10-18T10:27:14;133.30;;;45.13;;
14040;SDS011;7095;51.388;6.196;2022-10-18T10:29:51;125.63;;;46.87;;
14040;SDS011;7095;51.388;6.196;2022-10-18T10:32:42;136.40;;;47.20;;
14040;SDS011;7095;51.388;6.196;2022-10-18T10:35:20;128.10;;;46.23;;
14040;SDS011;7095;51.388;6.196;2022-10-18T10:38:20;134.10;;;46.73;;
14040;SDS011;7095;51.388;6.196;2022-10-18T10:40:50;120.83;;;43.77;;
14040;SDS011;7095;51.388;6.196;2022-10-18T10:43:20;129.37;;;48.67;;
14040;SDS011;7095;51.388;6.196;2022-10-18T10:46:09;113.83;;;46.87;;
14040;SDS011;7095;51.388;6.196;2022-10-18T10:48:50;125.43;;;45.73;;
14040;SDS011;7095;51.388;6.196;2022-10-18T10:51:44;124.73;;;45.97;;
14040;SDS011;7095;51.388;6.196;2022-10-18T10:54:35;110.93;;;43.70;;
14040;SDS011;7095;51.388;6.196;2022-10-18T10:57:15;122.67;;;45.90;;
14040;SDS011;7095;51.388;6.196;2022-10-18T10:59:54;100.87;;;43.67;;
14040;SDS011;7095;51.388;6.196;2022-10-18T11:02:28;103.20;;;42.50;;
14040;SDS011;7095;51.388;6.196;2022-10-18T11:05:14;101.40;;;42.80;;
14040;SDS011;7095;51.388;6.196;2022-10-18T11:07:52;94.80;;;38.77;;
14040;SDS011;7095;51.388;6.196;2022-10-18T11:10:25;85.83;;;36.80;;
14040;SDS011;7095;51.388;6.196;2022-10-18T11:13:01;87.63;;;37.17;;
14040;SDS011;7095;51.388;6.196;2022-10-18T11:15:34;88.83;;;37.73;;
14040;SDS011;7095;51.388;6.196;2022-10-18T11:18:09;75.03;;;36.53;;
14040;SDS011;7095;51.388;6.196;2022-10-18T11:20:50;86.47;;;37.00;;
14040;SDS011;7095;51.388;6.196;2022-10-18T11:23:26;77.77;;;36.77;;
14040;SDS011;7095;51.388;6.196;2022-10-18T11:26:02;73.97;;;35.17;;
14040;SDS011;7095;51.388;6.196;2022-10-18T11:28:55;70.67;;;33.67;;
14040;SDS011;7095;51.388;6.196;2022-10-18T11:31:36;71.87;;;34.03;;
14040;SDS011;7095;51.388;6.196;2022-10-18T11:34:15;76.00;;;33.97;;
14040;SDS011;7095;51.388;6.196;2022-10-18T11:36:59;60.03;;;29.50;;
14040;SDS011;7095;51.388;6.196;2022-10-18T11:40:01;67.73;;;29.03;;
14040;SDS011;7095;51.388;6.196;2022-10-18T11:42:39;62.47;;;31.17;;
14040;SDS011;7095;51.388;6.196;2022-10-18T11:45:23;59.10;;;29.43;;
14040;SDS011;7095;51.388;6.196;2022-10-18T11:48:04;64.13;;;30.20;;
14040;SDS011;7095;51.388;6.196;2022-10-18T11:50:47;52.33;;;27.00;;
14040;SDS011;7095;51.388;6.196;2022-10-18T11:53:22;52.40;;;25.80;;
14040;SDS011;7095;51.388;6.196;2022-10-18T11:56:05;48.10;;;26.87;;
14040;SDS011;7095;51.388;6.196;2022-10-18T11:58:44;54.00;;;28.63;;
14040;SDS011;7095;51.388;6.196;2022-10-18T12:01:25;51.70;;;26.27;;
14040;SDS011;7095;51.388;6.196;2022-10-18T12:04:01;53.27;;;25.90;;
14040;SDS011;7095;51.388;6.196;2022-10-18T12:06:36;55.67;;;24.87;;
14040;SDS011;7095;51.388;6.196;2022-10-18T12:09:21;54.40;;;28.07;;
14040;SDS011;7095;51.388;6.196;2022-10-18T12:11:54;53.07;;;26.70;;
14040;SDS011;7095;51.388;6.196;2022-10-18T12:14:28;47.30;;;26.30;;
14040;SDS011;7095;51.388;6.196;2022-10-18T12:17:04;38.90;;;21.47;;
14040;SDS011;7095;51.388;6.196;2022-10-18T12:20:01;33.60;;;18.00;;
14040;SDS011;7095;51.388;6.196;2022-10-18T12:22:37;34.60;;;18.17;;
14040;SDS011;7095;51.388;6.196;2022-10-18T12:25:09;38.60;;;18.47;;
14040;SDS011;7095;51.388;6.196;2022-10-18T12:27:47;32.57;;;17.93;;
14040;SDS011;7095;51.388;6.196;2022-10-18T12:30:26;26.30;;;14.63;;
14040;SDS011;7095;51.388;6.196;2022-10-18T12:33:01;23.83;;;11.50;;
14040;SDS011;7095;51.388;6.196;2022-10-18T12:35:56;30.53;;;11.13;;
14040;SDS011;7095;51.388;6.196;2022-10-18T12:38:33;30.97;;;12.50;;
14040;SDS011;7095;51.388;6.196;2022-10-18T12:41:05;25.03;;;10.90;;
14040;SDS011;7095;51.388;6.196;2022-10-18T12:43:36;24.30;;;10.87;;
14040;SDS011;7095;51.388;6.196;2022-10-18T12:46:05;29.57;;;10.67;;
14040;SDS011;7095;51.388;6.196;2022-10-18T12:48:40;24.57;;;10.57;;
14040;SDS011;7095;51.388;6.196;2022-10-18T12:51:12;24.93;;;11.13;;
14040;SDS011;7095;51.388;6.196;2022-10-18T12:53:45;25.60;;;9.67;;
14040;SDS011;7095;51.388;6.196;2022-10-18T12:56:33;19.17;;;9.53;;
14040;SDS011;7095;51.388;6.196;2022-10-18T13:02:26;17.77;;;8.40;;
14040;SDS011;7095;51.388;6.196;2022-10-18T13:04:59;20.73;;;8.50;;
14040;SDS011;7095;51.388;6.196;2022-10-18T13:11:24;15.43;;;6.83;;
14040;SDS011;7095;51.388;6.196;2022-10-18T13:17:34;15.67;;;6.27;;
14040;SDS011;7095;51.388;6.196;2022-10-18T13:20:18;14.27;;;5.23;;
14040;SDS011;7095;51.388;6.196;2022-10-18T13:23:02;16.37;;;6.10;;
14040;SDS011;7095;51.388;6.196;2022-10-18T13:25:45;18.03;;;6.70;;
14040;SDS011;7095;51.388;6.196;2022-10-18T13:28:27;18.00;;;5.60;;
14040;SDS011;7095;51.388;6.196;2022-10-18T13:31:17;14.50;;;6.23;;
14040;SDS011;7095;51.388;6.196;2022-10-18T13:33:52;16.40;;;5.83;;
14040;SDS011;7095;51.388;6.196;2022-10-18T13:39:33;22.17;;;4.60;;
14040;SDS011;7095;51.388;6.196;2022-10-18T13:51:36;14.10;;;4.90;;
14040;SDS011;7095;51.388;6.196;2022-10-18T13:54:37;12.00;;;4.13;;
14040;SDS011;7095;51.388;6.196;2022-10-18T14:00:22;17.90;;;3.63;;
14040;SDS011;7095;51.388;6.196;2022-10-18T14:03:10;11.43;;;3.53;;
14040;SDS011;7095;51.388;6.196;2022-10-18T14:06:13;14.27;;;4.13;;
14040;SDS011;7095;51.388;6.196;2022-10-18T14:08:47;9.47;;;3.67;;
14040;SDS011;7095;51.388;6.196;2022-10-18T14:11:22;12.93;;;4.07;;
14040;SDS011;7095;51.388;6.196;2022-10-18T14:14:02;12.33;;;3.90;;
14040;SDS011;7095;51.388;6.196;2022-10-18T14:16:37;12.63;;;3.50;;
14040;SDS011;7095;51.388;6.196;2022-10-18T14:19:15;11.53;;;3.43;;
14040;SDS011;7095;51.388;6.196;2022-10-18T14:21:50;12.47;;;3.70;;
14040;SDS011;7095;51.388;6.196;2022-10-18T14:24:25;17.67;;;3.90;;
14040;SDS011;7095;51.388;6.196;2022-10-18T14:27:11;12.00;;;3.50;;
14040;SDS011;7095;51.388;6.196;2022-10-18T14:29:43;13.50;;;3.87;;
14040;SDS011;7095;51.388;6.196;2022-10-18T14:32:23;10.20;;;3.23;;
14040;SDS011;7095;51.388;6.196;2022-10-18T14:34:54;9.80;;;3.43;;
14040;SDS011;7095;51.388;6.196;2022-10-18T14:37:44;12.03;;;3.70;;
14040;SDS011;7095;51.388;6.196;2022-10-18T14:40:29;11.60;;;3.20;;
14040;SDS011;7095;51.388;6.196;2022-10-18T14:43:02;14.33;;;3.87;;
14040;SDS011;7095;51.388;6.196;2022-10-18T14:45:33;16.93;;;3.53;;
14040;SDS011;7095;51.388;6.196;2022-10-18T14:48:12;12.07;;;3.47;;
14040;SDS011;7095;51.388;6.196;2022-10-18T14:50:43;17.10;;;4.50;;
14040;SDS011;7095;51.388;6.196;2022-10-18T14:53:15;11.77;;;3.93;;
14040;SDS011;7095;51.388;6.196;2022-10-18T14:55:55;13.70;;;3.60;;
14040;SDS011;7095;51.388;6.196;2022-10-18T14:58:26;10.87;;;3.97;;
14040;SDS011;7095;51.388;6.196;2022-10-18T15:00:55;16.43;;;3.90;;
14040;SDS011;7095;51.388;6.196;2022-10-18T15:03:26;12.43;;;3.27;;
14040;SDS011;7095;51.388;6.196;2022-10-18T15:05:56;15.13;;;3.30;;
14040;SDS011;7095;51.388;6.196;2022-10-18T15:08:28;7.90;;;2.27;;
14040;SDS011;7095;51.388;6.196;2022-10-18T15:11:04;10.90;;;2.90;;
14040;SDS011;7095;51.388;6.196;2022-10-18T15:13:40;8.33;;;2.43;;
14040;SDS011;7095;51.388;6.196;2022-10-18T15:16:14;5.67;;;1.83;;
14040;SDS011;7095;51.388;6.196;2022-10-18T15:18:57;8.50;;;2.17;;
14040;SDS011;7095;51.388;6.196;2022-10-18T15:21:27;8.87;;;2.20;;
14040;SDS011;7095;51.388;6.196;2022-10-18T15:26:56;12.57;;;2.30;;
14040;SDS011;7095;51.388;6.196;2022-10-18T15:29:29;11.37;;;2.40;;
14040;SDS011;7095;51.388;6.196;2022-10-18T15:32:15;11.70;;;2.77;;
14040;SDS011;7095;51.388;6.196;2022-10-18T15:34:48;7.80;;;2.20;;
14040;SDS011;7095;51.388;6.196;2022-10-18T15:37:17;7.47;;;2.27;;
14040;SDS011;7095;51.388;6.196;2022-10-18T15:46:03;10.07;;;2.43;;
14040;SDS011;7095;51.388;6.196;2022-10-18T15:48:34;8.63;;;2.23;;
14040;SDS011;7095;51.388;6.196;2022-10-18T15:51:04;8.87;;;2.07;;
14040;SDS011;7095;51.388;6.196;2022-10-18T15:53:35;8.63;;;2.47;;
14040;SDS011;7095;51.388;6.196;2022-10-18T15:56:09;10.10;;;1.73;;
14040;SDS011;7095;51.388;6.196;2022-10-18T15:58:54;7.10;;;2.20;;
14040;SDS011;7095;51.388;6.196;2022-10-18T16:01:27;8.70;;;1.97;;
14040;SDS011;7095;51.388;6.196;2022-10-18T16:04:06;15.33;;;2.30;;